Aeroporto :
LOGIN :

Iscrizione | Disclaimer

   EN    FR    IT 

 










Sommario :    VFR   VFR Marginale   IFR   IFR Intensivo   IFR Molto Intensivo
Visibilità : 
Base nubi : 
>= 8 km
>= 3000ft
5 / 8 km
1000 / 3000 ft
1500m / 5 km
500 / 1000 ft
800 / 1500m
200 / 500 ft
< 800m
< 200 ft
Simboli :   Temporali  Nebbia  Neve Forte  Precipitazioni Forti  Vento > 20 kt
SIGMETs :   Varie  Temporali  Ghiacco  Turbolenza  Onda orograficha  Ceneri Vulcaniche






- Altitudine del aeroporto : 219 ft
- Codice IATA : DNR


LFRD - Dinard

ULTIMO METAR :
  • 210100Z AUTO 12007KT CAVOK 04/03 Q1002 TEMPO BKN005

METARs OBSOLETI :
  • 210030Z AUTO 12007KT CAVOK 04/03 Q1002 TEMPO BKN005
  • 210000Z AUTO 13005KT 090V160 CAVOK 04/03 Q1003 TEMPO BKN005
  • 202330Z AUTO 13007KT CAVOK 04/03 Q1003 TEMPO BKN005
  • 202300Z AUTO 12006KT 090V150 CAVOK 04/03 Q1003 TEMPO BKN005
  • 202230Z AUTO 13007KT 100V160 CAVOK 05/03 Q1003 TEMPO BKN005
  • 202200Z AUTO 13006KT 090V160 CAVOK 05/03 Q1004 TEMPO BKN005

TAF TAF LFRD
Valido dal 21 a 00 ore il 22 a 00 ore UTC


202300Z 2100/2124 13012KT CAVOK
PROB40
TEMPO 2100/2103 BKN005
BECMG 2103/2105 BKN007
TEMPO 2105/2112 3000 RADZ BKN003
BECMG 2112/2114 BKN020
TEMPO 2114/2124 4000 SHRA BKN020CB
ATIS : +33 2 99 16 81 50



MetMap, La meteo Aeronautica in un colpo d'occhio ! - Copyright ORBIFLY Dicembre 2007 - Disclaimer

ORBIFLY MET'MAP TEAM :

Programmazione e sviluppo : Alexandra Zaïnal
Concezione e sviluppo : Baudouin d'Aumeries
Co-Programmazione e sviluppo : Marc-Olivier Méhu
Supporto tecnico e logistico : Manuel Goepfert
Aiuto per la traduzione : Arnaldo La Scala

Contatto : metmap@orbifly.com




FONTI E CREDITI :

   NOAA